createdAt,value
2023-04-23T00:02:30.902Z,88.40
2023-04-23T00:05:02.676Z,80.63
2023-04-23T00:07:33.054Z,76.47
2023-04-23T00:10:04.038Z,65.17
2023-04-23T00:12:34.500Z,69.03
2023-04-23T00:15:04.151Z,70.13
2023-04-23T00:17:32.619Z,75.83
2023-04-23T00:20:00.647Z,71.50
2023-04-23T00:22:28.818Z,71.27
2023-04-23T00:24:57.012Z,73.17
2023-04-23T00:27:24.977Z,86.87
2023-04-23T00:29:54.261Z,71.33
2023-04-23T00:32:22.766Z,70.13
2023-04-23T00:34:51.242Z,71.37
2023-04-23T00:37:19.254Z,66.37
2023-04-23T00:39:47.281Z,68.13
2023-04-23T00:42:17.300Z,64.87
2023-04-23T00:44:45.331Z,81.70
2023-04-23T00:47:16.638Z,64.40
2023-04-23T00:49:45.707Z,63.70
2023-04-23T00:52:13.880Z,58.23
2023-04-23T00:54:42.159Z,58.33
2023-04-23T00:57:10.527Z,62.17
2023-04-23T00:59:38.665Z,55.43
2023-04-23T01:02:06.942Z,59.73
2023-04-23T01:04:38.384Z,66.30
2023-04-23T01:07:07.670Z,61.57
2023-04-23T01:09:35.726Z,52.67
2023-04-23T01:12:06.862Z,56.23
2023-04-23T01:14:35.489Z,52.53
2023-04-23T01:17:03.729Z,62.57
2023-04-23T01:19:32.006Z,57.73
2023-04-23T01:22:01.942Z,54.07
2023-04-23T01:24:32.671Z,51.47
2023-04-23T01:27:01.752Z,55.60
2023-04-23T01:29:31.343Z,36.10
2023-04-23T01:32:00.480Z,36.63
2023-04-23T01:34:28.547Z,31.77
2023-04-23T01:36:57.211Z,36.17
2023-04-23T01:39:25.530Z,35.00
2023-04-23T01:41:55.487Z,33.50
2023-04-23T01:44:23.572Z,37.43
2023-04-23T01:46:52.617Z,29.50
2023-04-23T01:49:20.814Z,29.53
2023-04-23T01:51:49.008Z,38.43
2023-04-23T01:54:17.061Z,28.83
2023-04-23T01:56:45.102Z,29.90
2023-04-23T01:59:14.627Z,23.37
2023-04-23T02:01:44.724Z,18.80
2023-04-23T02:04:14.072Z,20.87
2023-04-23T02:06:42.963Z,22.63
2023-04-23T02:09:11.648Z,20.23
2023-04-23T02:11:39.744Z,17.87
2023-04-23T02:14:08.792Z,18.93
2023-04-23T02:16:38.197Z,18.23
2023-04-23T02:19:06.968Z,19.87
2023-04-23T02:21:35.186Z,14.80
2023-04-23T02:24:05.457Z,18.27
2023-04-23T02:26:33.424Z,17.10
2023-04-23T02:29:01.421Z,17.60
2023-04-23T02:31:29.461Z,14.77
2023-04-23T02:33:59.152Z,16.67
2023-04-23T02:36:28.694Z,13.33
2023-04-23T02:38:56.797Z,16.40
2023-04-23T02:41:24.970Z,15.27
2023-04-23T02:43:53.010Z,13.67
2023-04-23T02:46:20.967Z,17.80
2023-04-23T02:48:49.012Z,18.30
2023-04-23T02:51:18.400Z,17.67
2023-04-23T02:53:46.454Z,17.10
2023-04-23T02:56:14.467Z,15.53
2023-04-23T02:58:42.478Z,20.13
2023-04-23T03:01:10.483Z,12.93
2023-04-23T03:03:39.019Z,15.30
2023-04-23T03:06:08.265Z,13.50
2023-04-23T03:08:37.577Z,13.37
2023-04-23T03:11:05.576Z,12.03
2023-04-23T03:13:33.694Z,15.93
2023-04-23T03:16:01.668Z,14.67
2023-04-23T03:18:29.729Z,13.50
2023-04-23T03:20:57.884Z,15.30
2023-04-23T03:23:26.268Z,14.97
2023-04-23T03:25:55.671Z,14.63
2023-04-23T03:28:24.009Z,16.03
2023-04-23T03:30:52.315Z,14.47
2023-04-23T03:33:20.310Z,13.57
2023-04-23T03:35:48.456Z,16.87
2023-04-23T03:38:16.844Z,15.40
2023-04-23T03:40:45.199Z,14.43
2023-04-23T03:43:14.622Z,14.53
2023-04-23T03:45:42.804Z,15.10
2023-04-23T03:48:10.936Z,13.07
2023-04-23T03:50:40.836Z,15.60
2023-04-23T03:53:10.011Z,16.73
2023-04-23T03:55:38.087Z,19.73
2023-04-23T03:58:06.076Z,16.03
2023-04-23T04:00:35.811Z,12.63
2023-04-23T04:03:04.497Z,14.07
2023-04-23T04:05:32.868Z,16.77
2023-04-23T04:08:01.740Z,13.47
2023-04-23T04:10:30.053Z,13.33
2023-04-23T04:12:58.055Z,12.70
2023-04-23T04:15:26.198Z,13.80
2023-04-23T04:17:55.576Z,13.03
2023-04-23T04:20:23.813Z,15.80
2023-04-23T04:22:51.804Z,16.63
2023-04-23T04:25:22.215Z,16.80
2023-04-23T04:27:50.297Z,13.80
2023-04-23T04:30:18.685Z,10.40
2023-04-23T04:32:47.472Z,16.07
2023-04-23T04:35:16.881Z,13.57
2023-04-23T04:37:45.120Z,15.00
2023-04-23T04:40:15.267Z,12.90
2023-04-23T04:42:43.344Z,14.53
2023-04-23T04:45:12.331Z,15.43
2023-04-23T04:47:41.385Z,13.60
2023-04-23T04:50:10.364Z,13.97
2023-04-23T04:52:39.838Z,14.37
2023-04-23T04:55:08.724Z,13.00
2023-04-23T04:57:36.728Z,19.70
2023-04-23T05:00:22.918Z,12.70
2023-04-23T05:02:52.410Z,13.63
2023-04-23T05:05:21.341Z,13.90
2023-04-23T05:07:51.253Z,15.20
2023-04-23T05:10:19.728Z,14.40
2023-04-23T05:12:47.889Z,14.07
2023-04-23T05:15:16.472Z,15.57
2023-04-23T05:17:45.139Z,15.77
2023-04-23T05:20:14.051Z,15.57
2023-04-23T05:22:43.512Z,13.97
2023-04-23T05:25:14.477Z,16.40
2023-04-23T05:27:42.601Z,14.97
2023-04-23T05:30:11.821Z,13.67
2023-04-23T05:32:40.402Z,14.67
2023-04-23T05:35:09.582Z,15.83
2023-04-23T05:37:37.592Z,16.10
2023-04-23T05:40:07.471Z,17.53
2023-04-23T05:42:38.013Z,13.77
2023-04-23T05:45:08.831Z,16.73
2023-04-23T05:47:37.788Z,18.13
2023-04-23T05:50:07.288Z,20.27
2023-04-23T05:52:37.412Z,16.37
2023-04-23T05:55:06.919Z,19.20
2023-04-23T05:57:36.909Z,19.70
2023-04-23T06:00:06.431Z,17.50
2023-04-23T06:02:34.905Z,19.73
2023-04-23T06:05:03.361Z,18.17
2023-04-23T06:07:31.538Z,21.80
2023-04-23T06:09:59.614Z,17.00
2023-04-23T06:12:27.955Z,20.37
2023-04-23T06:14:58.259Z,14.53
2023-04-23T06:17:26.275Z,16.20
2023-04-23T06:19:54.399Z,18.57
2023-04-23T06:22:22.422Z,15.40
2023-04-23T06:24:50.395Z,17.23
2023-04-23T06:27:18.565Z,11.90
2023-04-23T06:29:46.670Z,15.40
2023-04-23T06:32:17.768Z,16.93
2023-04-23T06:34:59.626Z,16.77
2023-04-23T06:37:30.905Z,14.33
2023-04-23T06:39:59.980Z,13.87
2023-04-23T06:42:28.024Z,13.43
2023-04-23T06:44:56.672Z,13.70
2023-04-23T06:47:26.064Z,14.13
2023-04-23T06:49:54.247Z,12.63
2023-04-23T06:52:22.307Z,16.23
2023-04-23T06:54:50.526Z,13.10
2023-04-23T06:57:18.839Z,12.43
2023-04-23T06:59:47.007Z,14.00
2023-04-23T07:02:15.116Z,12.00
2023-04-23T07:04:44.816Z,13.23
2023-04-23T07:07:13.423Z,13.40
2023-04-23T07:09:41.422Z,10.57
2023-04-23T07:12:09.674Z,13.43
2023-04-23T07:14:37.928Z,12.00
2023-04-23T07:17:06.195Z,10.30
2023-04-23T07:19:34.214Z,11.40
2023-04-23T07:22:03.607Z,11.80
2023-04-23T07:24:31.619Z,11.07
2023-04-23T07:26:59.667Z,11.20
2023-04-23T07:29:27.662Z,9.33
2023-04-23T07:31:56.372Z,10.80
2023-04-23T07:34:24.572Z,12.67
2023-04-23T07:36:53.185Z,11.67
2023-04-23T07:39:22.516Z,11.77
2023-04-23T07:41:50.631Z,10.97
2023-04-23T07:44:18.812Z,11.63
2023-04-23T07:46:47.009Z,9.07
2023-04-23T07:49:15.139Z,9.77
2023-04-23T07:51:43.536Z,10.33
2023-04-23T07:54:11.651Z,10.10
2023-04-23T07:56:42.704Z,12.80
2023-04-23T07:59:11.362Z,9.33
2023-04-23T08:01:39.423Z,9.33
2023-04-23T08:04:08.169Z,10.97
2023-04-23T08:06:36.424Z,14.53
2023-04-23T08:09:06.489Z,10.90
2023-04-23T08:11:34.577Z,8.57
2023-04-23T08:14:03.924Z,13.70
2023-04-23T08:16:32.182Z,10.27
2023-04-23T08:21:31.876Z,7.60
2023-04-23T08:23:59.972Z,8.43
2023-04-23T08:26:28.131Z,7.27
2023-04-23T08:28:56.916Z,8.30
2023-04-23T08:31:27.429Z,12.87
2023-04-23T08:33:55.941Z,9.73
2023-04-23T08:36:24.483Z,5.47
2023-04-23T08:38:52.667Z,6.80
2023-04-23T08:41:24.846Z,5.43
2023-04-23T08:43:58.048Z,9.30
2023-04-23T08:46:32.271Z,6.03
2023-04-23T08:49:01.768Z,7.87
2023-04-23T08:51:33.572Z,7.17
2023-04-23T08:54:05.571Z,5.53
2023-04-23T08:56:33.973Z,5.73
2023-04-23T08:59:04.101Z,7.93
2023-04-23T09:01:33.615Z,6.83
2023-04-23T09:04:02.234Z,8.97
2023-04-23T09:06:32.333Z,7.83
2023-04-23T09:09:00.909Z,6.93
2023-04-23T09:11:30.393Z,7.50
2023-04-23T09:13:58.574Z,7.10
2023-04-23T09:16:27.843Z,9.47
2023-04-23T09:18:58.067Z,5.80
2023-04-23T09:21:26.221Z,7.53
2023-04-23T09:23:54.233Z,6.07
2023-04-23T09:26:23.424Z,7.13
2023-04-23T09:28:52.440Z,4.10
2023-04-23T09:31:24.644Z,7.47
2023-04-23T09:33:54.080Z,8.77
2023-04-23T09:36:25.436Z,5.28
2023-04-23T09:38:57.696Z,9.35
2023-04-23T09:41:27.182Z,4.78
2023-04-23T09:43:55.993Z,10.07
2023-04-23T09:46:37.424Z,5.45
2023-04-23T09:49:07.887Z,4.18
2023-04-23T09:51:41.302Z,7.68
2023-04-23T09:54:13.750Z,6.82
2023-04-23T09:56:42.485Z,4.55
2023-04-23T09:59:32.586Z,3.35
2023-04-23T10:02:10.844Z,5.50
2023-04-23T10:04:39.937Z,2.22
2023-04-23T10:09:44.831Z,6.90
2023-04-23T10:14:49.284Z,4.93
2023-04-23T10:17:17.836Z,3.75
2023-04-23T10:19:46.586Z,5.50
2023-04-23T10:22:20.533Z,3.67
2023-04-23T10:24:56.190Z,4.20
2023-04-23T10:27:40.528Z,6.43
2023-04-23T10:30:17.057Z,5.47
2023-04-23T10:32:46.150Z,6.45
2023-04-23T10:35:14.314Z,4.47
2023-04-23T10:37:45.269Z,4.97
2023-04-23T10:40:15.516Z,3.85
2023-04-23T10:42:45.441Z,5.03
2023-04-23T10:47:49.329Z,5.20
2023-04-23T10:50:24.968Z,5.22
2023-04-23T10:52:54.969Z,6.18
2023-04-23T10:55:24.957Z,4.47
2023-04-23T10:58:02.393Z,3.20
2023-04-23T11:00:43.152Z,5.38
2023-04-23T11:03:32.319Z,3.28
2023-04-23T11:06:03.344Z,4.43
2023-04-23T11:08:33.459Z,2.78
2023-04-23T11:11:02.659Z,6.07
2023-04-23T11:13:31.466Z,4.10
2023-04-23T11:16:16.425Z,6.43
2023-04-23T11:19:05.160Z,8.23
2023-04-23T11:22:01.169Z,3.47
2023-04-23T11:24:32.766Z,4.45
2023-04-23T11:27:02.949Z,2.83
2023-04-23T11:29:31.036Z,3.25
2023-04-23T11:32:02.947Z,4.05
2023-04-23T11:34:32.079Z,3.72
2023-04-23T11:37:01.706Z,5.35
2023-04-23T11:39:31.186Z,6.82
2023-04-23T11:42:03.050Z,5.20
2023-04-23T11:44:31.694Z,2.75
2023-04-23T11:47:03.034Z,4.55
2023-04-23T11:49:31.139Z,4.13
2023-04-23T11:52:02.005Z,3.53
2023-04-23T11:54:31.438Z,6.80
2023-04-23T11:57:00.023Z,4.80
2023-04-23T11:59:28.323Z,6.20
2023-04-23T12:01:57.857Z,3.15
2023-04-23T12:04:27.868Z,5.15
2023-04-23T12:06:56.864Z,5.50
2023-04-23T12:09:26.516Z,3.80
2023-04-23T12:11:58.347Z,3.72
2023-04-23T12:14:31.335Z,5.03
2023-04-23T12:17:10.152Z,5.75
2023-04-23T12:19:38.375Z,3.83
2023-04-23T12:22:08.510Z,5.88
2023-04-23T12:24:48.525Z,3.45
2023-04-23T12:27:22.963Z,7.00
2023-04-23T12:30:00.225Z,3.35
2023-04-23T12:32:28.301Z,4.00
2023-04-23T12:34:56.968Z,3.08
2023-04-23T12:37:27.183Z,2.92
2023-04-23T12:39:56.912Z,2.60
2023-04-23T12:42:26.853Z,5.80
2023-04-23T12:44:55.830Z,5.82
2023-04-23T12:47:24.404Z,4.07
2023-04-23T12:49:55.663Z,7.53
2023-04-23T12:52:23.893Z,5.38
2023-04-23T12:54:56.578Z,4.05
2023-04-23T12:57:27.741Z,2.85
2023-04-23T12:59:56.503Z,3.65
2023-04-23T13:02:26.415Z,2.58
2023-04-23T13:05:00.751Z,3.60
2023-04-23T13:07:29.144Z,3.22
2023-04-23T13:09:57.488Z,3.97
2023-04-23T13:12:26.976Z,3.90
2023-04-23T13:14:55.175Z,3.97
2023-04-23T13:17:23.280Z,4.05
2023-04-23T13:19:51.339Z,5.32
2023-04-23T13:22:19.354Z,3.42
2023-04-23T13:24:47.351Z,3.55
2023-04-23T13:27:15.893Z,5.47
2023-04-23T13:29:45.268Z,5.70
2023-04-23T13:32:13.445Z,4.70
2023-04-23T13:34:41.568Z,3.60
2023-04-23T13:37:09.735Z,4.90
2023-04-23T13:39:39.393Z,4.38
2023-04-23T13:42:10.203Z,4.82
2023-04-23T13:44:38.794Z,5.20
2023-04-23T13:47:08.439Z,8.25
2023-04-23T13:49:36.573Z,7.38
2023-04-23T13:52:07.075Z,3.92
2023-04-23T13:54:36.207Z,4.45
2023-04-23T13:57:04.503Z,5.55
2023-04-23T13:59:32.575Z,3.83
2023-04-23T14:02:00.973Z,8.85
2023-04-23T14:04:30.652Z,3.85
2023-04-23T14:06:58.746Z,7.55
2023-04-23T14:09:26.844Z,5.03
2023-04-23T14:11:54.959Z,7.43
2023-04-23T14:14:22.960Z,5.15
2023-04-23T14:16:51.210Z,3.80
2023-04-23T14:19:20.010Z,3.40
2023-04-23T14:21:51.227Z,4.82
2023-04-23T14:24:23.490Z,4.25
2023-04-23T14:26:51.612Z,6.05
2023-04-23T14:29:25.201Z,4.32
2023-04-23T14:31:53.552Z,2.90
2023-04-23T14:34:21.553Z,3.22
2023-04-23T14:36:53.093Z,9.20
2023-04-23T14:39:22.865Z,4.22
2023-04-23T14:41:51.294Z,4.80
2023-04-23T14:44:19.561Z,16.35
2023-04-23T14:46:49.917Z,4.35
2023-04-23T14:49:18.270Z,4.28
2023-04-23T14:51:46.324Z,6.50
2023-04-23T14:54:15.682Z,4.72
2023-04-23T14:56:43.836Z,7.60
2023-04-23T14:59:12.031Z,4.03
2023-04-23T15:01:40.101Z,5.15
2023-04-23T15:04:08.143Z,5.45
2023-04-23T15:06:36.708Z,4.57
2023-04-23T15:09:04.956Z,5.28
2023-04-23T15:11:35.155Z,4.30
2023-04-23T15:14:07.493Z,2.67
2023-04-23T15:19:09.990Z,3.72
2023-04-23T15:21:38.396Z,5.05
2023-04-23T15:24:07.990Z,5.15
2023-04-23T15:26:38.680Z,4.10
2023-04-23T15:29:09.089Z,3.33
2023-04-23T15:31:37.429Z,5.22
2023-04-23T15:34:08.459Z,4.10
2023-04-23T15:36:37.698Z,5.00
2023-04-23T15:39:06.406Z,5.35
2023-04-23T15:41:37.515Z,5.20
2023-04-23T15:44:11.641Z,8.90
2023-04-23T15:46:40.002Z,5.70
2023-04-23T15:49:08.196Z,3.67
2023-04-23T15:51:36.644Z,5.45
2023-04-23T15:56:36.567Z,5.97
2023-04-23T15:59:04.609Z,5.88
2023-04-23T16:01:34.027Z,4.60
2023-04-23T16:06:33.396Z,6.30
2023-04-23T16:09:02.446Z,5.97
2023-04-23T16:11:30.501Z,4.57
2023-04-23T16:13:58.779Z,7.23
2023-04-23T16:16:26.954Z,6.93
2023-04-23T16:18:57.759Z,8.03
2023-04-23T16:21:27.980Z,9.77
2023-04-23T16:23:56.008Z,9.87
2023-04-23T16:26:25.381Z,8.60
2023-04-23T16:29:05.648Z,7.47
2023-04-23T16:31:39.923Z,6.77
2023-04-23T16:34:09.773Z,9.80
2023-04-23T16:36:38.207Z,11.53
2023-04-23T16:39:06.202Z,10.83
2023-04-23T16:41:34.206Z,13.23
2023-04-23T16:44:02.238Z,15.83
2023-04-23T16:46:32.106Z,11.40
2023-04-23T16:49:00.326Z,10.50
2023-04-23T16:51:29.922Z,11.73
2023-04-23T16:53:58.386Z,10.23
2023-04-23T16:56:27.070Z,7.43
2023-04-23T16:58:55.143Z,7.30
2023-04-23T17:01:23.432Z,8.13
2023-04-23T17:03:51.669Z,7.87
2023-04-23T17:06:26.133Z,12.50
2023-04-23T17:08:57.273Z,15.47
2023-04-23T17:11:25.349Z,7.37
2023-04-23T17:13:53.760Z,14.60
2023-04-23T17:16:21.984Z,14.37
2023-04-23T17:18:50.252Z,7.80
2023-04-23T17:21:19.077Z,7.60
2023-04-23T17:23:47.098Z,6.60
2023-04-23T17:26:16.435Z,7.30
2023-04-23T17:28:44.406Z,6.70
2023-04-23T17:31:12.558Z,7.63
2023-04-23T17:33:43.432Z,10.57
2023-04-23T17:36:11.665Z,10.40
2023-04-23T17:38:40.181Z,16.13
2023-04-23T17:41:08.295Z,18.47
2023-04-23T17:43:37.870Z,21.20
2023-04-23T17:46:05.935Z,18.53
2023-04-23T17:48:34.022Z,19.97
2023-04-23T17:51:02.369Z,17.27
2023-04-23T17:53:31.222Z,18.67
2023-04-23T17:56:02.900Z,15.23
2023-04-23T17:58:31.632Z,16.70
2023-04-23T18:01:01.167Z,16.10
2023-04-23T18:03:30.242Z,16.43
2023-04-23T18:05:58.585Z,11.43
2023-04-23T18:08:27.077Z,15.93
2023-04-23T18:10:55.172Z,14.10
2023-04-23T18:13:23.453Z,12.87
2023-04-23T18:15:51.808Z,12.60
2023-04-23T18:18:21.822Z,10.00
2023-04-23T18:20:52.121Z,7.63
2023-04-23T18:23:22.079Z,8.83
2023-04-23T18:25:50.347Z,9.93
2023-04-23T18:28:18.590Z,10.93
2023-04-23T18:30:46.849Z,12.13
2023-04-23T18:33:31.890Z,11.53
2023-04-23T18:36:05.700Z,9.20
2023-04-23T18:38:39.945Z,9.73
2023-04-23T18:41:07.946Z,9.57
2023-04-23T18:43:36.056Z,9.33
2023-04-23T18:46:04.222Z,6.10
2023-04-23T18:48:46.540Z,6.60
2023-04-23T18:51:21.690Z,8.20
2023-04-23T18:53:50.282Z,5.80
2023-04-23T18:56:18.329Z,6.23
2023-04-23T18:58:46.308Z,7.30
2023-04-23T19:01:14.916Z,6.27
2023-04-23T19:03:44.586Z,5.23
2023-04-23T19:06:12.838Z,6.17
2023-04-23T19:08:42.351Z,4.87
2023-04-23T19:11:10.552Z,6.10
2023-04-23T19:13:38.756Z,6.33
2023-04-23T19:16:06.873Z,6.57
2023-04-23T19:18:35.284Z,7.87
2023-04-23T19:21:06.017Z,5.80
2023-04-23T19:23:34.224Z,6.37
2023-04-23T19:26:03.271Z,8.90
2023-04-23T19:28:31.354Z,7.90
2023-04-23T19:30:59.580Z,6.80
2023-04-23T19:33:27.604Z,7.80
2023-04-23T19:35:55.803Z,7.07
2023-04-23T19:38:25.352Z,6.90
2023-04-23T19:40:53.771Z,6.00
2023-04-23T19:43:21.968Z,9.07
2023-04-23T19:45:50.362Z,7.07
2023-04-23T19:48:18.419Z,6.07
2023-04-23T19:50:47.049Z,6.67
2023-04-23T19:53:15.075Z,5.43
2023-04-23T19:55:44.716Z,6.27
2023-04-23T19:58:12.900Z,7.20
2023-04-23T20:00:41.939Z,7.50
2023-04-23T20:03:10.360Z,7.83
2023-04-23T20:05:38.692Z,8.33
2023-04-23T20:08:14.675Z,6.67
2023-04-23T20:10:44.422Z,6.63
2023-04-23T20:13:13.488Z,192.13
2023-04-23T20:15:41.795Z,17.20
2023-04-23T20:18:09.859Z,13.33
2023-04-23T20:20:39.959Z,9.03
2023-04-23T20:23:08.005Z,18.50
2023-04-23T20:25:36.682Z,13.73
2023-04-23T20:28:06.711Z,15.37
2023-04-23T20:30:34.822Z,23.13
2023-04-23T20:33:03.343Z,10.27
2023-04-23T20:35:32.053Z,11.20
2023-04-23T20:38:00.916Z,8.33
2023-04-23T20:40:29.057Z,9.00
2023-04-23T20:42:58.670Z,11.50
2023-04-23T20:45:28.298Z,9.70
2023-04-23T20:47:57.492Z,11.93
2023-04-23T20:50:25.604Z,13.17
2023-04-23T20:52:53.650Z,10.63
2023-04-23T20:55:21.893Z,11.90
2023-04-23T20:57:49.875Z,10.20
2023-04-23T21:00:21.102Z,11.17
2023-04-23T21:02:50.704Z,12.67
2023-04-23T21:05:18.973Z,11.00
2023-04-23T21:07:47.088Z,14.13
2023-04-23T21:10:15.188Z,12.03
2023-04-23T21:12:43.470Z,10.67
2023-04-23T21:15:13.337Z,10.63
2023-04-23T21:17:41.466Z,9.17
2023-04-23T21:20:11.815Z,10.37
2023-04-23T21:22:39.910Z,9.40
2023-04-23T21:25:08.423Z,12.50
2023-04-23T21:27:36.497Z,10.67
2023-04-23T21:30:09.664Z,11.50
2023-04-23T21:32:37.742Z,17.93
2023-04-23T21:35:06.999Z,16.37
2023-04-23T21:37:37.434Z,11.47
2023-04-23T21:40:06.522Z,14.60
2023-04-23T21:42:34.917Z,16.37
2023-04-23T21:45:03.060Z,15.83
2023-04-23T21:47:31.104Z,16.97
2023-04-23T21:50:00.238Z,16.07
2023-04-23T21:52:28.452Z,16.53
2023-04-23T21:54:57.747Z,14.63
2023-04-23T21:57:25.761Z,10.47
2023-04-23T21:59:53.802Z,13.20
2023-04-23T22:02:22.487Z,14.17
2023-04-23T22:04:50.694Z,19.73
2023-04-23T22:07:19.143Z,24.43
2023-04-23T22:09:47.185Z,18.27
2023-04-23T22:12:16.777Z,19.27
2023-04-23T22:14:45.034Z,15.40
2023-04-23T22:17:13.158Z,13.83
2023-04-23T22:19:41.942Z,14.77
2023-04-23T22:22:10.140Z,11.43
2023-04-23T22:24:38.188Z,18.47
2023-04-23T22:27:06.316Z,16.90
2023-04-23T22:29:35.951Z,14.23
2023-04-23T22:32:03.996Z,15.10
2023-04-23T22:34:31.986Z,16.33
2023-04-23T22:37:00.076Z,19.60
2023-04-23T22:39:28.438Z,17.90
2023-04-23T22:41:57.040Z,16.03
2023-04-23T22:44:24.956Z,17.27
2023-04-23T22:46:54.501Z,17.33
2023-04-23T22:49:22.477Z,21.63
2023-04-23T22:51:50.691Z,22.07
2023-04-23T22:54:18.797Z,21.23
2023-04-23T22:56:46.829Z,13.97
2023-04-23T22:59:14.921Z,15.10
2023-04-23T23:01:42.916Z,8.83
2023-04-23T23:04:12.990Z,8.97
2023-04-23T23:06:41.494Z,10.50
2023-04-23T23:09:10.016Z,10.37
2023-04-23T23:11:38.218Z,10.20
2023-04-23T23:14:06.815Z,9.23
2023-04-23T23:16:34.991Z,10.57
2023-04-23T23:19:02.998Z,10.43
2023-04-23T23:21:32.660Z,11.30
2023-04-23T23:24:00.720Z,11.97
2023-04-23T23:26:29.000Z,14.60
2023-04-23T23:28:57.016Z,15.13
2023-04-23T23:31:26.168Z,11.90
2023-04-23T23:33:54.349Z,12.50
2023-04-23T23:36:22.420Z,10.43
2023-04-23T23:38:52.840Z,11.13
2023-04-23T23:41:21.010Z,8.93
2023-04-23T23:43:48.977Z,12.53
2023-04-23T23:46:18.345Z,8.97
2023-04-23T23:48:46.715Z,10.73
2023-04-23T23:51:16.293Z,10.47
2023-04-23T23:53:44.844Z,12.63
2023-04-23T23:56:14.191Z,11.83
2023-04-23T23:58:42.262Z,10.23
